sensor_id;sensor_type;location;lat;lon;timestamp;temperature;humidity
34542;DHT22;20784;51.332;12.410;2023-11-19T00:00:58;6.20;99.90
34542;DHT22;20784;51.332;12.410;2023-11-19T00:03:27;6.20;99.90
34542;DHT22;20784;51.332;12.410;2023-11-19T00:05:58;6.20;99.90
34542;DHT22;20784;51.332;12.410;2023-11-19T00:08:34;6.20;99.90
34542;DHT22;20784;51.332;12.410;2023-11-19T00:11:12;6.20;99.90
34542;DHT22;20784;51.332;12.410;2023-11-19T00:13:47;6.20;99.90
34542;DHT22;20784;51.332;12.410;2023-11-19T00:16:13;6.30;99.90
34542;DHT22;20784;51.332;12.410;2023-11-19T00:18:41;6.20;99.90
34542;DHT22;20784;51.332;12.410;2023-11-19T00:21:07;6.20;99.90
34542;DHT22;20784;51.332;12.410;2023-11-19T00:23:33;6.10;99.90
34542;DHT22;20784;51.332;12.410;2023-11-19T00:26:00;6.00;99.90
34542;DHT22;20784;51.332;12.410;2023-11-19T00:28:25;6.30;99.90
34542;DHT22;20784;51.332;12.410;2023-11-19T00:30:51;5.90;99.90
34542;DHT22;20784;51.332;12.410;2023-11-19T00:33:17;6.00;99.90
34542;DHT22;20784;51.332;12.410;2023-11-19T00:35:43;6.00;99.90
34542;DHT22;20784;51.332;12.410;2023-11-19T00:38:11;5.90;99.90
34542;DHT22;20784;51.332;12.410;2023-11-19T00:40:38;6.00;99.90
34542;DHT22;20784;51.332;12.410;2023-11-19T00:43:06;5.80;99.90
34542;DHT22;20784;51.332;12.410;2023-11-19T00:45:36;5.90;99.90
34542;DHT22;20784;51.332;12.410;2023-11-19T00:48:05;5.90;99.90
34542;DHT22;20784;51.332;12.410;2023-11-19T00:50:31;5.90;99.90
34542;DHT22;20784;51.332;12.410;2023-11-19T00:53:00;5.90;99.90
34542;DHT22;20784;51.332;12.410;2023-11-19T00:55:34;6.00;99.90
34542;DHT22;20784;51.332;12.410;2023-11-19T00:58:10;5.80;99.90
34542;DHT22;20784;51.332;12.410;2023-11-19T01:00:36;5.90;99.90
34542;DHT22;20784;51.332;12.410;2023-11-19T01:03:02;5.90;99.90
34542;DHT22;20784;51.332;12.410;2023-11-19T01:05:28;5.90;99.90
34542;DHT22;20784;51.332;12.410;2023-11-19T01:07:56;5.90;99.90
34542;DHT22;20784;51.332;12.410;2023-11-19T01:10:34;6.00;99.90
34542;DHT22;20784;51.332;12.410;2023-11-19T01:13:02;5.90;99.90
34542;DHT22;20784;51.332;12.410;2023-11-19T01:18:08;6.00;99.90
34542;DHT22;20784;51.332;12.410;2023-11-19T01:20:36;6.00;99.90
34542;DHT22;20784;51.332;12.410;2023-11-19T01:23:02;6.10;99.90
34542;DHT22;20784;51.332;12.410;2023-11-19T01:25:28;6.10;99.90
34542;DHT22;20784;51.332;12.410;2023-11-19T01:27:54;6.00;99.90
34542;DHT22;20784;51.332;12.410;2023-11-19T01:30:23;6.00;99.90
34542;DHT22;20784;51.332;12.410;2023-11-19T01:32:49;6.00;99.90
34542;DHT22;20784;51.332;12.410;2023-11-19T01:35:15;6.00;99.90
34542;DHT22;20784;51.332;12.410;2023-11-19T01:37:43;6.00;99.90
34542;DHT22;20784;51.332;12.410;2023-11-19T01:40:12;6.00;99.90
34542;DHT22;20784;51.332;12.410;2023-11-19T01:42:41;6.00;99.90
34542;DHT22;20784;51.332;12.410;2023-11-19T01:45:10;6.00;99.90
34542;DHT22;20784;51.332;12.410;2023-11-19T01:47:44;5.90;99.90
34542;DHT22;20784;51.332;12.410;2023-11-19T01:50:13;6.10;99.90
34542;DHT22;20784;51.332;12.410;2023-11-19T01:52:39;6.20;99.90
34542;DHT22;20784;51.332;12.410;2023-11-19T01:55:06;6.20;99.90
34542;DHT22;20784;51.332;12.410;2023-11-19T01:57:38;6.10;99.90
34542;DHT22;20784;51.332;12.410;2023-11-19T02:00:10;6.00;99.90
34542;DHT22;20784;51.332;12.410;2023-11-19T02:02:47;6.10;99.90
34542;DHT22;20784;51.332;12.410;2023-11-19T02:05:13;6.10;99.90
34542;DHT22;20784;51.332;12.410;2023-11-19T02:07:47;6.10;99.90
34542;DHT22;20784;51.332;12.410;2023-11-19T02:10:18;6.00;99.90
34542;DHT22;20784;51.332;12.410;2023-11-19T02:12:45;6.10;99.90
34542;DHT22;20784;51.332;12.410;2023-11-19T02:15:17;6.10;99.90
34542;DHT22;20784;51.332;12.410;2023-11-19T02:17:48;6.20;99.90
34542;DHT22;20784;51.332;12.410;2023-11-19T02:20:14;6.00;99.90
34542;DHT22;20784;51.332;12.410;2023-11-19T02:22:41;6.10;99.90
34542;DHT22;20784;51.332;12.410;2023-11-19T02:25:33;6.30;99.90
34542;DHT22;20784;51.332;12.410;2023-11-19T02:28:01;6.20;99.90
34542;DHT22;20784;51.332;12.410;2023-11-19T02:30:27;6.00;99.90
34542;DHT22;20784;51.332;12.410;2023-11-19T02:32:57;6.00;99.90
34542;DHT22;20784;51.332;12.410;2023-11-19T02:35:27;6.00;99.90
34542;DHT22;20784;51.332;12.410;2023-11-19T02:37:56;6.00;99.90
34542;DHT22;20784;51.332;12.410;2023-11-19T02:40:27;6.00;99.90
34542;DHT22;20784;51.332;12.410;2023-11-19T02:42:53;6.00;99.90
34542;DHT22;20784;51.332;12.410;2023-11-19T02:45:26;6.10;99.90
34542;DHT22;20784;51.332;12.410;2023-11-19T02:48:00;6.00;99.90
34542;DHT22;20784;51.332;12.410;2023-11-19T02:50:32;6.10;99.90
34542;DHT22;20784;51.332;12.410;2023-11-19T02:52:58;6.10;99.90
34542;DHT22;20784;51.332;12.410;2023-11-19T02:55:26;6.10;99.90
34542;DHT22;20784;51.332;12.410;2023-11-19T02:57:55;6.40;99.90
34542;DHT22;20784;51.332;12.410;2023-11-19T03:00:24;6.10;99.90
34542;DHT22;20784;51.332;12.410;2023-11-19T03:02:57;6.20;99.90
34542;DHT22;20784;51.332;12.410;2023-11-19T03:05:42;6.20;99.90
34542;DHT22;20784;51.332;12.410;2023-11-19T03:08:09;6.20;99.90
34542;DHT22;20784;51.332;12.410;2023-11-19T03:10:35;6.20;99.90
34542;DHT22;20784;51.332;12.410;2023-11-19T03:13:01;6.40;99.90
34542;DHT22;20784;51.332;12.410;2023-11-19T03:15:27;6.20;99.90
34542;DHT22;20784;51.332;12.410;2023-11-19T03:17:53;6.20;99.90
34542;DHT22;20784;51.332;12.410;2023-11-19T03:20:19;6.30;99.90
34542;DHT22;20784;51.332;12.410;2023-11-19T03:22:46;6.30;99.90
34542;DHT22;20784;51.332;12.410;2023-11-19T03:25:15;6.30;99.90
34542;DHT22;20784;51.332;12.410;2023-11-19T03:27:40;6.40;99.90
34542;DHT22;20784;51.332;12.410;2023-11-19T03:30:12;6.30;99.90
34542;DHT22;20784;51.332;12.410;2023-11-19T03:32:40;6.30;99.90
34542;DHT22;20784;51.332;12.410;2023-11-19T03:35:09;6.40;99.90
34542;DHT22;20784;51.332;12.410;2023-11-19T03:37:37;6.40;99.90
34542;DHT22;20784;51.332;12.410;2023-11-19T03:40:09;6.50;99.90
34542;DHT22;20784;51.332;12.410;2023-11-19T03:42:38;6.40;99.90
34542;DHT22;20784;51.332;12.410;2023-11-19T03:45:06;6.50;99.90
34542;DHT22;20784;51.332;12.410;2023-11-19T03:47:34;6.50;99.90
34542;DHT22;20784;51.332;12.410;2023-11-19T03:50:00;6.50;99.90
34542;DHT22;20784;51.332;12.410;2023-11-19T03:52:26;6.50;99.90
34542;DHT22;20784;51.332;12.410;2023-11-19T03:55:12;6.50;99.90
34542;DHT22;20784;51.332;12.410;2023-11-19T03:58:08;6.50;99.90
34542;DHT22;20784;51.332;12.410;2023-11-19T04:00:33;6.40;99.90
34542;DHT22;20784;51.332;12.410;2023-11-19T04:02:59;6.50;99.90
34542;DHT22;20784;51.332;12.410;2023-11-19T04:05:28;6.50;99.90
34542;DHT22;20784;51.332;12.410;2023-11-19T04:07:54;6.80;99.90
34542;DHT22;20784;51.332;12.410;2023-11-19T04:10:22;6.60;99.90
34542;DHT22;20784;51.332;12.410;2023-11-19T04:12:48;6.50;99.90
34542;DHT22;20784;51.332;12.410;2023-11-19T04:15:14;6.60;99.90
34542;DHT22;20784;51.332;12.410;2023-11-19T04:17:40;6.60;99.90
34542;DHT22;20784;51.332;12.410;2023-11-19T04:20:07;6.70;99.90
34542;DHT22;20784;51.332;12.410;2023-11-19T04:22:38;6.70;99.90
34542;DHT22;20784;51.332;12.410;2023-11-19T04:25:12;6.70;99.90
34542;DHT22;20784;51.332;12.410;2023-11-19T04:27:42;6.80;99.90
34542;DHT22;20784;51.332;12.410;2023-11-19T04:30:11;6.80;99.90
34542;DHT22;20784;51.332;12.410;2023-11-19T04:32:42;6.70;99.90
34542;DHT22;20784;51.332;12.410;2023-11-19T04:35:10;6.80;99.90
34542;DHT22;20784;51.332;12.410;2023-11-19T04:37:39;6.80;99.90
34542;DHT22;20784;51.332;12.410;2023-11-19T04:40:05;6.80;99.90
34542;DHT22;20784;51.332;12.410;2023-11-19T04:42:31;6.90;99.90
34542;DHT22;20784;51.332;12.410;2023-11-19T04:44:58;6.90;99.90
34542;DHT22;20784;51.332;12.410;2023-11-19T04:47:26;7.00;99.90
34542;DHT22;20784;51.332;12.410;2023-11-19T04:49:51;7.00;99.90
34542;DHT22;20784;51.332;12.410;2023-11-19T04:52:17;7.20;99.90
34542;DHT22;20784;51.332;12.410;2023-11-19T04:54:43;7.10;99.90
34542;DHT22;20784;51.332;12.410;2023-11-19T04:57:09;7.10;99.90
34542;DHT22;20784;51.332;12.410;2023-11-19T04:59:38;7.10;99.90
34542;DHT22;20784;51.332;12.410;2023-11-19T05:02:04;7.10;99.90
34542;DHT22;20784;51.332;12.410;2023-11-19T05:04:31;7.20;99.90
34542;DHT22;20784;51.332;12.410;2023-11-19T05:06:57;7.20;99.90
34542;DHT22;20784;51.332;12.410;2023-11-19T05:09:28;7.20;99.90
34542;DHT22;20784;51.332;12.410;2023-11-19T05:11:54;7.20;99.90
34542;DHT22;20784;51.332;12.410;2023-11-19T05:14:20;7.40;99.90
34542;DHT22;20784;51.332;12.410;2023-11-19T05:16:46;7.20;99.90
34542;DHT22;20784;51.332;12.410;2023-11-19T05:19:20;7.20;99.90
34542;DHT22;20784;51.332;12.410;2023-11-19T05:21:45;7.30;99.90
34542;DHT22;20784;51.332;12.410;2023-11-19T05:24:11;7.30;99.90
34542;DHT22;20784;51.332;12.410;2023-11-19T05:26:40;7.40;99.90
34542;DHT22;20784;51.332;12.410;2023-11-19T05:29:06;7.30;99.90
34542;DHT22;20784;51.332;12.410;2023-11-19T05:31:31;7.30;99.90
34542;DHT22;20784;51.332;12.410;2023-11-19T05:34:00;7.40;99.90
34542;DHT22;20784;51.332;12.410;2023-11-19T05:36:28;7.40;99.90
34542;DHT22;20784;51.332;12.410;2023-11-19T05:38:54;7.30;99.90
34542;DHT22;20784;51.332;12.410;2023-11-19T05:41:20;7.50;99.90
34542;DHT22;20784;51.332;12.410;2023-11-19T05:43:59;7.40;99.90
34542;DHT22;20784;51.332;12.410;2023-11-19T05:46:25;7.50;99.90
34542;DHT22;20784;51.332;12.410;2023-11-19T05:48:53;7.60;99.90
34542;DHT22;20784;51.332;12.410;2023-11-19T05:51:21;7.80;99.90
34542;DHT22;20784;51.332;12.410;2023-11-19T05:53:52;7.60;99.90
34542;DHT22;20784;51.332;12.410;2023-11-19T05:56:17;7.60;99.90
34542;DHT22;20784;51.332;12.410;2023-11-19T05:58:49;7.60;99.90
34542;DHT22;20784;51.332;12.410;2023-11-19T06:01:15;7.80;99.90
34542;DHT22;20784;51.332;12.410;2023-11-19T06:03:41;7.60;99.90
34542;DHT22;20784;51.332;12.410;2023-11-19T06:06:14;7.70;99.90
34542;DHT22;20784;51.332;12.410;2023-11-19T06:08:40;7.70;99.90
34542;DHT22;20784;51.332;12.410;2023-11-19T06:11:12;7.70;99.90
34542;DHT22;20784;51.332;12.410;2023-11-19T06:13:49;7.60;99.90
34542;DHT22;20784;51.332;12.410;2023-11-19T06:19:00;7.90;99.90
34542;DHT22;20784;51.332;12.410;2023-11-19T06:21:36;7.90;99.90
34542;DHT22;20784;51.332;12.410;2023-11-19T06:24:21;7.90;99.90
34542;DHT22;20784;51.332;12.410;2023-11-19T06:26:56;7.90;99.90
34542;DHT22;20784;51.332;12.410;2023-11-19T06:29:22;8.10;99.90
34542;DHT22;20784;51.332;12.410;2023-11-19T06:31:48;8.00;99.90
34542;DHT22;20784;51.332;12.410;2023-11-19T06:34:16;8.00;99.90
34542;DHT22;20784;51.332;12.410;2023-11-19T06:36:48;8.00;99.90
34542;DHT22;20784;51.332;12.410;2023-11-19T06:39:21;8.00;99.90
34542;DHT22;20784;51.332;12.410;2023-11-19T06:41:52;8.00;99.90
34542;DHT22;20784;51.332;12.410;2023-11-19T06:44:18;8.10;99.90
34542;DHT22;20784;51.332;12.410;2023-11-19T06:46:52;8.10;99.90
34542;DHT22;20784;51.332;12.410;2023-11-19T06:49:24;8.20;99.90
34542;DHT22;20784;51.332;12.410;2023-11-19T06:52:00;8.20;99.90
34542;DHT22;20784;51.332;12.410;2023-11-19T06:54:32;8.20;99.90
34542;DHT22;20784;51.332;12.410;2023-11-19T06:57:11;8.20;99.90
34542;DHT22;20784;51.332;12.410;2023-11-19T06:59:49;8.20;99.90
34542;DHT22;20784;51.332;12.410;2023-11-19T07:02:26;8.30;99.90
34542;DHT22;20784;51.332;12.410;2023-11-19T07:04:55;8.30;99.90
34542;DHT22;20784;51.332;12.410;2023-11-19T07:07:23;8.20;99.90
34542;DHT22;20784;51.332;12.410;2023-11-19T07:09:52;8.40;99.90
34542;DHT22;20784;51.332;12.410;2023-11-19T07:12:20;8.40;99.90
34542;DHT22;20784;51.332;12.410;2023-11-19T07:14:46;8.60;99.90
34542;DHT22;20784;51.332;12.410;2023-11-19T07:17:15;8.40;99.90
34542;DHT22;20784;51.332;12.410;2023-11-19T07:22:52;8.50;99.90
34542;DHT22;20784;51.332;12.410;2023-11-19T07:25:25;8.50;99.90
34542;DHT22;20784;51.332;12.410;2023-11-19T07:27:56;8.60;99.90
34542;DHT22;20784;51.332;12.410;2023-11-19T07:30:35;8.60;99.90
34542;DHT22;20784;51.332;12.410;2023-11-19T07:33:01;8.60;99.90
34542;DHT22;20784;51.332;12.410;2023-11-19T07:35:37;8.60;99.90
34542;DHT22;20784;51.332;12.410;2023-11-19T07:38:05;8.70;99.90
34542;DHT22;20784;51.332;12.410;2023-11-19T07:40:31;8.70;99.90
34542;DHT22;20784;51.332;12.410;2023-11-19T07:43:14;9.10;99.90
34542;DHT22;20784;51.332;12.410;2023-11-19T07:45:41;8.80;99.90
34542;DHT22;20784;51.332;12.410;2023-11-19T07:48:09;8.80;99.90
34542;DHT22;20784;51.332;12.410;2023-11-19T07:50:41;8.90;99.90
34542;DHT22;20784;51.332;12.410;2023-11-19T07:53:07;8.90;99.90
34542;DHT22;20784;51.332;12.410;2023-11-19T07:55:33;8.90;99.90
34542;DHT22;20784;51.332;12.410;2023-11-19T07:57:59;8.90;99.90
34542;DHT22;20784;51.332;12.410;2023-11-19T08:00:24;8.90;99.90
34542;DHT22;20784;51.332;12.410;2023-11-19T08:02:50;8.90;99.90
34542;DHT22;20784;51.332;12.410;2023-11-19T08:05:18;9.00;99.90
34542;DHT22;20784;51.332;12.410;2023-11-19T08:07:47;9.00;99.90
34542;DHT22;20784;51.332;12.410;2023-11-19T08:10:16;9.00;99.90
34542;DHT22;20784;51.332;12.410;2023-11-19T08:12:45;9.00;99.90
34542;DHT22;20784;51.332;12.410;2023-11-19T08:15:11;9.10;99.90
34542;DHT22;20784;51.332;12.410;2023-11-19T08:17:37;9.10;99.90
34542;DHT22;20784;51.332;12.410;2023-11-19T08:20:06;9.10;99.90
34542;DHT22;20784;51.332;12.410;2023-11-19T08:23:10;9.10;99.90
34542;DHT22;20784;51.332;12.410;2023-11-19T08:25:36;9.20;99.90
34542;DHT22;20784;51.332;12.410;2023-11-19T08:28:02;9.30;99.90
34542;DHT22;20784;51.332;12.410;2023-11-19T08:30:29;9.30;99.90
34542;DHT22;20784;51.332;12.410;2023-11-19T08:32:58;9.50;99.90
34542;DHT22;20784;51.332;12.410;2023-11-19T08:35:43;9.60;99.90
34542;DHT22;20784;51.332;12.410;2023-11-19T08:40:54;10.10;99.90
34542;DHT22;20784;51.332;12.410;2023-11-19T08:43:28;10.30;99.90
34542;DHT22;20784;51.332;12.410;2023-11-19T08:45:54;10.40;99.90
34542;DHT22;20784;51.332;12.410;2023-11-19T08:48:43;11.40;99.90
34542;DHT22;20784;51.332;12.410;2023-11-19T08:55:11;15.00;99.90
34542;DHT22;20784;51.332;12.410;2023-11-19T08:58:26;14.90;99.90
34542;DHT22;20784;51.332;12.410;2023-11-19T09:01:09;14.00;99.90
34542;DHT22;20784;51.332;12.410;2023-11-19T09:03:39;13.50;99.90
34542;DHT22;20784;51.332;12.410;2023-11-19T09:06:25;13.70;99.90
34542;DHT22;20784;51.332;12.410;2023-11-19T09:08:52;14.70;99.90
34542;DHT22;20784;51.332;12.410;2023-11-19T09:11:18;15.30;99.90
34542;DHT22;20784;51.332;12.410;2023-11-19T09:13:46;15.30;99.90
34542;DHT22;20784;51.332;12.410;2023-11-19T09:16:30;15.20;99.90
34542;DHT22;20784;51.332;12.410;2023-11-19T09:18:55;15.30;99.90
34542;DHT22;20784;51.332;12.410;2023-11-19T09:21:27;15.20;99.90
34542;DHT22;20784;51.332;12.410;2023-11-19T09:23:52;15.70;99.90
34542;DHT22;20784;51.332;12.410;2023-11-19T09:26:21;15.70;99.90
34542;DHT22;20784;51.332;12.410;2023-11-19T09:28:55;16.00;99.90
34542;DHT22;20784;51.332;12.410;2023-11-19T09:31:28;15.40;99.90
34542;DHT22;20784;51.332;12.410;2023-11-19T09:33:56;14.80;99.90
34542;DHT22;20784;51.332;12.410;2023-11-19T09:36:32;14.30;99.90
34542;DHT22;20784;51.332;12.410;2023-11-19T09:39:06;13.60;99.90
34542;DHT22;20784;51.332;12.410;2023-11-19T09:41:41;13.20;99.90
34542;DHT22;20784;51.332;12.410;2023-11-19T09:44:10;12.90;99.90
34542;DHT22;20784;51.332;12.410;2023-11-19T09:46:38;12.70;99.90
34542;DHT22;20784;51.332;12.410;2023-11-19T09:49:08;12.70;99.90
34542;DHT22;20784;51.332;12.410;2023-11-19T09:51:38;12.50;99.90
34542;DHT22;20784;51.332;12.410;2023-11-19T09:54:04;12.50;99.90
34542;DHT22;20784;51.332;12.410;2023-11-19T09:56:30;12.30;99.90
34542;DHT22;20784;51.332;12.410;2023-11-19T09:59:02;12.30;99.90
34542;DHT22;20784;51.332;12.410;2023-11-19T10:01:28;12.20;99.90
34542;DHT22;20784;51.332;12.410;2023-11-19T10:03:58;12.10;99.90
34542;DHT22;20784;51.332;12.410;2023-11-19T10:06:26;12.10;99.90
34542;DHT22;20784;51.332;12.410;2023-11-19T10:08:56;12.10;99.90
34542;DHT22;20784;51.332;12.410;2023-11-19T10:11:21;12.10;99.90
34542;DHT22;20784;51.332;12.410;2023-11-19T10:13:58;12.10;99.90
34542;DHT22;20784;51.332;12.410;2023-11-19T10:16:51;12.00;99.90
34542;DHT22;20784;51.332;12.410;2023-11-19T10:19:28;11.90;99.90
34542;DHT22;20784;51.332;12.410;2023-11-19T10:22:05;11.90;99.90
34542;DHT22;20784;51.332;12.410;2023-11-19T10:24:41;12.00;99.90
34542;DHT22;20784;51.332;12.410;2023-11-19T10:27:07;11.90;99.90
34542;DHT22;20784;51.332;12.410;2023-11-19T10:29:36;11.90;99.90
34542;DHT22;20784;51.332;12.410;2023-11-19T10:32:03;12.00;99.90
34542;DHT22;20784;51.332;12.410;2023-11-19T10:34:34;12.00;99.90
34542;DHT22;20784;51.332;12.410;2023-11-19T10:37:03;12.00;99.90
34542;DHT22;20784;51.332;12.410;2023-11-19T10:39:54;12.20;99.90
34542;DHT22;20784;51.332;12.410;2023-11-19T10:42:20;12.30;99.90
34542;DHT22;20784;51.332;12.410;2023-11-19T10:44:48;12.40;99.90
34542;DHT22;20784;51.332;12.410;2023-11-19T10:47:14;12.50;99.90
34542;DHT22;20784;51.332;12.410;2023-11-19T10:49:43;12.60;99.90
34542;DHT22;20784;51.332;12.410;2023-11-19T10:52:11;12.60;99.90
34542;DHT22;20784;51.332;12.410;2023-11-19T10:54:52;12.90;99.90
34542;DHT22;20784;51.332;12.410;2023-11-19T10:57:27;13.40;99.90
34542;DHT22;20784;51.332;12.410;2023-11-19T11:00:03;13.90;99.90
34542;DHT22;20784;51.332;12.410;2023-11-19T11:02:54;15.50;99.90
34542;DHT22;20784;51.332;12.410;2023-11-19T11:05:22;17.90;99.90
34542;DHT22;20784;51.332;12.410;2023-11-19T11:11:29;19.70;99.90
34542;DHT22;20784;51.332;12.410;2023-11-19T11:14:16;18.90;99.90
34542;DHT22;20784;51.332;12.410;2023-11-19T11:16:48;19.80;99.90
34542;DHT22;20784;51.332;12.410;2023-11-19T11:19:29;19.50;99.90
34542;DHT22;20784;51.332;12.410;2023-11-19T11:22:04;19.00;99.90
34542;DHT22;20784;51.332;12.410;2023-11-19T11:24:55;20.30;99.90
34542;DHT22;20784;51.332;12.410;2023-11-19T11:27:48;21.90;99.90
34542;DHT22;20784;51.332;12.410;2023-11-19T11:30:38;22.90;99.90
34542;DHT22;20784;51.332;12.410;2023-11-19T11:33:30;22.70;99.90
34542;DHT22;20784;51.332;12.410;2023-11-19T11:36:19;22.40;99.90
34542;DHT22;20784;51.332;12.410;2023-11-19T11:38:50;22.60;99.90
34542;DHT22;20784;51.332;12.410;2023-11-19T11:41:23;21.90;99.90
34542;DHT22;20784;51.332;12.410;2023-11-19T11:43:51;22.00;99.90
34542;DHT22;20784;51.332;12.410;2023-11-19T11:49:07;21.00;99.90
34542;DHT22;20784;51.332;12.410;2023-11-19T11:57:13;22.10;99.90
34542;DHT22;20784;51.332;12.410;2023-11-19T11:59:48;21.50;99.90
34542;DHT22;20784;51.332;12.410;2023-11-19T12:02:20;20.40;99.90
34542;DHT22;20784;51.332;12.410;2023-11-19T12:04:49;19.80;99.90
34542;DHT22;20784;51.332;12.410;2023-11-19T12:07:25;19.30;99.90
34542;DHT22;20784;51.332;12.410;2023-11-19T12:10:31;19.50;99.90
34542;DHT22;20784;51.332;12.410;2023-11-19T12:13:57;20.30;99.90
34542;DHT22;20784;51.332;12.410;2023-11-19T12:16:31;21.20;99.90
34542;DHT22;20784;51.332;12.410;2023-11-19T12:19:03;21.60;99.90
34542;DHT22;20784;51.332;12.410;2023-11-19T12:21:35;21.90;99.90
34542;DHT22;20784;51.332;12.410;2023-11-19T12:24:03;21.70;99.90
34542;DHT22;20784;51.332;12.410;2023-11-19T12:26:39;21.40;99.90
34542;DHT22;20784;51.332;12.410;2023-11-19T12:29:08;20.90;99.90
34542;DHT22;20784;51.332;12.410;2023-11-19T12:31:36;20.20;99.90
34542;DHT22;20784;51.332;12.410;2023-11-19T12:34:05;19.60;99.90
34542;DHT22;20784;51.332;12.410;2023-11-19T12:36:34;19.00;99.90
34542;DHT22;20784;51.332;12.410;2023-11-19T12:39:03;18.40;99.90
34542;DHT22;20784;51.332;12.410;2023-11-19T12:41:32;17.90;99.90
34542;DHT22;20784;51.332;12.410;2023-11-19T12:44:12;17.50;99.90
34542;DHT22;20784;51.332;12.410;2023-11-19T12:46:46;17.20;99.90
34542;DHT22;20784;51.332;12.410;2023-11-19T12:49:14;16.60;99.90
34542;DHT22;20784;51.332;12.410;2023-11-19T12:51:40;16.10;99.90
34542;DHT22;20784;51.332;12.410;2023-11-19T12:54:05;15.80;99.90
34542;DHT22;20784;51.332;12.410;2023-11-19T12:56:31;15.70;99.90
34542;DHT22;20784;51.332;12.410;2023-11-19T12:58:57;15.50;99.90
34542;DHT22;20784;51.332;12.410;2023-11-19T13:01:22;15.50;99.90
34542;DHT22;20784;51.332;12.410;2023-11-19T13:03:48;15.40;99.90
34542;DHT22;20784;51.332;12.410;2023-11-19T13:06:15;15.10;99.90
34542;DHT22;20784;51.332;12.410;2023-11-19T13:08:56;15.00;99.90
34542;DHT22;20784;51.332;12.410;2023-11-19T13:11:42;14.70;99.90
34542;DHT22;20784;51.332;12.410;2023-11-19T13:14:07;14.60;99.90
34542;DHT22;20784;51.332;12.410;2023-11-19T13:16:37;14.50;99.90
34542;DHT22;20784;51.332;12.410;2023-11-19T13:19:20;14.50;99.90
34542;DHT22;20784;51.332;12.410;2023-11-19T13:21:58;14.60;99.90
34542;DHT22;20784;51.332;12.410;2023-11-19T13:24:33;14.70;99.90
34542;DHT22;20784;51.332;12.410;2023-11-19T13:27:07;14.70;99.90
34542;DHT22;20784;51.332;12.410;2023-11-19T13:29:56;14.90;99.90
34542;DHT22;20784;51.332;12.410;2023-11-19T13:43:06;14.60;99.90
34542;DHT22;20784;51.332;12.410;2023-11-19T13:52:35;14.30;99.90
34542;DHT22;20784;51.332;12.410;2023-11-19T13:55:36;14.30;99.90
34542;DHT22;20784;51.332;12.410;2023-11-19T14:05:11;14.00;99.90
34542;DHT22;20784;51.332;12.410;2023-11-19T14:08:14;13.90;99.90
34542;DHT22;20784;51.332;12.410;2023-11-19T14:11:21;13.90;99.90
34542;DHT22;20784;51.332;12.410;2023-11-19T14:14:23;13.80;99.90
34542;DHT22;20784;51.332;12.410;2023-11-19T14:17:40;13.90;99.90
34542;DHT22;20784;51.332;12.410;2023-11-19T14:20:24;13.80;99.90
34542;DHT22;20784;51.332;12.410;2023-11-19T14:22:53;13.80;99.90
34542;DHT22;20784;51.332;12.410;2023-11-19T14:25:19;13.80;99.90
34542;DHT22;20784;51.332;12.410;2023-11-19T14:28:08;13.80;99.90
34542;DHT22;20784;51.332;12.410;2023-11-19T14:30:38;13.70;99.90
34542;DHT22;20784;51.332;12.410;2023-11-19T14:33:18;13.70;99.90
34542;DHT22;20784;51.332;12.410;2023-11-19T14:35:44;13.50;99.90
34542;DHT22;20784;51.332;12.410;2023-11-19T14:38:42;13.60;99.90
34542;DHT22;20784;51.332;12.410;2023-11-19T14:41:30;13.60;99.90
34542;DHT22;20784;51.332;12.410;2023-11-19T14:44:20;13.60;99.90
34542;DHT22;20784;51.332;12.410;2023-11-19T14:47:01;13.60;99.90
34542;DHT22;20784;51.332;12.410;2023-11-19T14:49:33;13.50;99.90
34542;DHT22;20784;51.332;12.410;2023-11-19T14:52:10;13.60;99.90
34542;DHT22;20784;51.332;12.410;2023-11-19T14:54:46;13.60;99.90
34542;DHT22;20784;51.332;12.410;2023-11-19T14:57:20;13.60;99.90
34542;DHT22;20784;51.332;12.410;2023-11-19T14:59:51;13.50;99.90
34542;DHT22;20784;51.332;12.410;2023-11-19T15:02:17;13.50;99.90
34542;DHT22;20784;51.332;12.410;2023-11-19T15:04:50;13.50;99.90
34542;DHT22;20784;51.332;12.410;2023-11-19T15:07:25;13.50;99.90
34542;DHT22;20784;51.332;12.410;2023-11-19T15:09:53;13.40;99.90
34542;DHT22;20784;51.332;12.410;2023-11-19T15:12:31;13.40;99.90
34542;DHT22;20784;51.332;12.410;2023-11-19T15:14:57;13.30;99.90
34542;DHT22;20784;51.332;12.410;2023-11-19T15:17:23;13.40;99.90
34542;DHT22;20784;51.332;12.410;2023-11-19T15:19:48;13.30;99.90
34542;DHT22;20784;51.332;12.410;2023-11-19T15:22:20;13.20;99.90
34542;DHT22;20784;51.332;12.410;2023-11-19T15:24:45;13.20;99.90
34542;DHT22;20784;51.332;12.410;2023-11-19T15:27:14;13.20;99.90
34542;DHT22;20784;51.332;12.410;2023-11-19T15:29:40;13.20;99.90
34542;DHT22;20784;51.332;12.410;2023-11-19T15:32:06;13.20;99.90
34542;DHT22;20784;51.332;12.410;2023-11-19T15:34:42;13.20;99.90
34542;DHT22;20784;51.332;12.410;2023-11-19T15:37:18;13.20;99.90
34542;DHT22;20784;51.332;12.410;2023-11-19T15:39:44;13.20;99.90
34542;DHT22;20784;51.332;12.410;2023-11-19T15:42:20;13.10;99.90
34542;DHT22;20784;51.332;12.410;2023-11-19T15:45:24;13.10;99.90
34542;DHT22;20784;51.332;12.410;2023-11-19T15:51:23;13.10;99.90
34542;DHT22;20784;51.332;12.410;2023-11-19T15:57:02;12.90;99.90
34542;DHT22;20784;51.332;12.410;2023-11-19T15:59:28;12.90;99.90
34542;DHT22;20784;51.332;12.410;2023-11-19T16:02:15;12.90;99.90
34542;DHT22;20784;51.332;12.410;2023-11-19T16:04:41;13.10;99.90
34542;DHT22;20784;51.332;12.410;2023-11-19T16:07:14;12.90;99.90
34542;DHT22;20784;51.332;12.410;2023-11-19T16:09:42;13.00;99.90
34542;DHT22;20784;51.332;12.410;2023-11-19T16:12:10;12.90;99.90
34542;DHT22;20784;51.332;12.410;2023-11-19T16:14:36;12.90;99.90
34542;DHT22;20784;51.332;12.410;2023-11-19T16:17:02;12.80;99.90
34542;DHT22;20784;51.332;12.410;2023-11-19T16:19:34;12.70;99.90
34542;DHT22;20784;51.332;12.410;2023-11-19T16:22:16;12.80;99.90
34542;DHT22;20784;51.332;12.410;2023-11-19T16:24:44;12.60;99.90
34542;DHT22;20784;51.332;12.410;2023-11-19T16:27:10;12.70;99.90
34542;DHT22;20784;51.332;12.410;2023-11-19T16:29:39;12.60;99.90
34542;DHT22;20784;51.332;12.410;2023-11-19T16:32:15;12.60;99.90
34542;DHT22;20784;51.332;12.410;2023-11-19T16:34:45;12.60;99.90
34542;DHT22;20784;51.332;12.410;2023-11-19T16:37:45;12.50;99.90
34542;DHT22;20784;51.332;12.410;2023-11-19T16:40:10;12.50;99.90
34542;DHT22;20784;51.332;12.410;2023-11-19T16:42:43;12.40;99.90
34542;DHT22;20784;51.332;12.410;2023-11-19T16:45:11;12.40;99.90
34542;DHT22;20784;51.332;12.410;2023-11-19T16:47:40;12.40;99.90
34542;DHT22;20784;51.332;12.410;2023-11-19T16:50:09;12.40;99.90
34542;DHT22;20784;51.332;12.410;2023-11-19T16:52:37;12.30;99.90